createdAt,value
2023-05-05T04:05:31.818Z,100.00
2023-05-05T04:09:46.403Z,100.00
2023-05-05T04:13:58.033Z,100.00
2023-05-05T04:18:11.523Z,100.00
2023-05-05T04:22:23.404Z,100.00
2023-05-05T04:26:35.798Z,100.00
2023-05-05T04:30:47.738Z,100.00
2023-05-05T04:34:59.317Z,100.00
2023-05-05T04:39:11.060Z,100.00
2023-05-05T04:43:22.751Z,100.00
2023-05-05T04:47:40.815Z,100.00
2023-05-05T04:51:53.030Z,100.00
2023-05-05T04:56:04.944Z,100.00
2023-05-05T05:00:17.628Z,100.00
2023-05-05T05:04:29.208Z,100.00
2023-05-05T05:08:40.895Z,100.00
2023-05-05T05:12:52.484Z,100.00
2023-05-05T05:17:04.220Z,99.81
2023-05-05T05:21:16.197Z,99.79
2023-05-05T05:25:28.932Z,99.69
2023-05-05T05:29:40.562Z,99.99
2023-05-05T05:33:52.140Z,100.00
2023-05-05T05:38:03.971Z,100.00
2023-05-05T05:42:15.585Z,100.00
2023-05-05T05:46:27.211Z,98.94
2023-05-05T05:50:38.905Z,98.16
2023-05-05T05:54:50.671Z,96.04
2023-05-05T05:59:04.513Z,94.92
2023-05-05T06:03:16.634Z,93.11
2023-05-05T06:07:28.367Z,90.07
2023-05-05T06:11:40.255Z,90.10
2023-05-05T06:15:52.060Z,91.25
2023-05-05T06:20:05.277Z,90.88
2023-05-05T06:24:16.931Z,89.41
2023-05-05T06:28:28.572Z,88.60
2023-05-05T06:32:40.108Z,86.43
2023-05-05T06:36:51.640Z,85.09
2023-05-05T06:41:03.305Z,84.99
2023-05-05T06:45:14.864Z,84.31
2023-05-05T06:49:26.469Z,80.90
2023-05-05T06:53:37.983Z,76.40
2023-05-05T06:57:49.476Z,72.58
2023-05-05T07:02:00.996Z,71.84
2023-05-05T07:06:12.521Z,73.12
2023-05-05T07:10:24.962Z,74.47
2023-05-05T07:14:36.450Z,73.47
2023-05-05T07:18:47.956Z,72.13
2023-05-05T07:22:59.591Z,72.05
2023-05-05T07:27:11.517Z,71.40
2023-05-05T07:31:23.422Z,70.77
2023-05-05T07:35:35.081Z,69.40
2023-05-05T07:39:49.541Z,67.58
2023-05-05T07:44:01.377Z,67.50
2023-05-05T07:48:12.918Z,67.46
2023-05-05T07:52:37.354Z,68.85
2023-05-05T07:56:57.205Z,67.93
2023-05-05T08:01:11.009Z,66.53
2023-05-05T08:05:22.593Z,66.33
2023-05-05T08:09:37.872Z,65.78
2023-05-05T08:13:49.385Z,67.97
2023-05-05T08:18:01.116Z,67.45
2023-05-05T08:22:12.843Z,66.11
2023-05-05T08:26:24.605Z,66.52
2023-05-05T08:30:36.198Z,67.14
2023-05-05T08:34:47.694Z,63.98
2023-05-05T08:39:00.352Z,64.27
2023-05-05T08:43:12.060Z,62.23
2023-05-05T08:47:23.571Z,63.26
2023-05-05T08:51:41.865Z,63.10
2023-05-05T08:55:56.212Z,61.35
2023-05-05T09:00:10.781Z,61.32
2023-05-05T09:04:22.505Z,60.67
2023-05-05T09:08:34.161Z,61.38
2023-05-05T09:12:45.764Z,61.08
2023-05-05T09:16:57.309Z,58.51
2023-05-05T09:21:22.575Z,59.72
2023-05-05T09:25:34.198Z,57.72
2023-05-05T09:29:49.771Z,55.86
2023-05-05T09:34:01.708Z,57.45
2023-05-05T09:38:13.244Z,55.30
2023-05-05T09:42:24.755Z,56.05
2023-05-05T09:46:36.561Z,56.11
2023-05-05T09:50:48.140Z,54.08
2023-05-05T09:54:59.693Z,53.67
2023-05-05T09:59:11.930Z,54.57
2023-05-05T10:03:24.643Z,54.63
2023-05-05T10:07:37.230Z,53.52
2023-05-05T10:11:49.384Z,55.92
2023-05-05T10:16:03.155Z,54.87
2023-05-05T10:20:15.771Z,55.96
2023-05-05T10:24:42.755Z,55.71
2023-05-05T10:29:03.988Z,53.82
2023-05-05T10:33:31.510Z,55.27
2023-05-05T10:37:44.645Z,54.64
2023-05-05T10:42:00.271Z,53.98
2023-05-05T10:46:11.859Z,53.76
2023-05-05T10:50:35.640Z,53.33
2023-05-05T10:55:01.995Z,54.49
2023-05-05T10:59:38.822Z,54.53
2023-05-05T11:03:50.598Z,54.38
2023-05-05T11:08:25.577Z,52.54
2023-05-05T11:12:52.300Z,53.13
2023-05-05T11:17:03.946Z,52.53
2023-05-05T11:21:17.433Z,51.87
2023-05-05T11:25:35.337Z,52.62
2023-05-05T11:30:09.566Z,50.96
2023-05-05T11:34:28.046Z,50.89
2023-05-05T11:38:54.650Z,51.91
2023-05-05T11:43:07.315Z,50.51
2023-05-05T11:47:18.728Z,50.55
2023-05-05T11:51:31.240Z,51.11
2023-05-05T11:55:42.747Z,49.85
2023-05-05T12:00:05.811Z,49.25
2023-05-05T12:04:18.089Z,49.91
2023-05-05T12:08:36.018Z,50.22
2023-05-05T12:12:48.518Z,51.01
2023-05-05T12:17:07.386Z,48.52
2023-05-05T12:21:19.773Z,48.97
2023-05-05T12:25:35.774Z,49.49
2023-05-05T12:29:47.325Z,46.63
2023-05-05T12:33:58.866Z,46.86
2023-05-05T12:38:10.640Z,47.12
2023-05-05T12:42:23.017Z,47.86
2023-05-05T12:46:48.495Z,47.63
2023-05-05T12:51:20.523Z,48.66
2023-05-05T12:55:38.095Z,49.72
2023-05-05T12:59:51.436Z,49.17
2023-05-05T13:04:11.542Z,49.49
2023-05-05T13:08:23.726Z,49.76
2023-05-05T13:12:35.253Z,51.09
2023-05-05T13:16:46.949Z,51.80
2023-05-05T13:20:58.489Z,52.08
2023-05-05T13:25:10.606Z,53.72
2023-05-05T13:29:26.139Z,55.55
2023-05-05T13:33:40.044Z,55.65
2023-05-05T13:37:51.858Z,56.29
2023-05-05T13:42:03.631Z,58.60
2023-05-05T13:46:19.976Z,63.38
2023-05-05T13:50:33.878Z,63.89
2023-05-05T13:54:45.977Z,68.46
2023-05-05T13:58:57.769Z,72.88
2023-05-05T14:03:09.306Z,72.09
2023-05-05T14:07:21.620Z,73.65
2023-05-05T14:11:33.277Z,75.98
2023-05-05T14:15:44.872Z,78.26
2023-05-05T14:19:56.452Z,80.78
2023-05-05T14:24:08.110Z,82.24
2023-05-05T14:28:19.724Z,83.81
2023-05-05T14:32:31.255Z,86.46
2023-05-05T14:36:42.886Z,90.33
2023-05-05T14:40:54.404Z,90.66
2023-05-05T14:45:06.927Z,90.61
2023-05-05T14:49:18.637Z,93.19
2023-05-05T14:53:30.490Z,91.85
2023-05-05T14:57:41.979Z,93.03
2023-05-05T15:01:53.543Z,90.43
2023-05-05T15:06:07.571Z,91.20
2023-05-05T15:10:21.718Z,91.40
2023-05-05T15:14:33.548Z,90.58
2023-05-05T15:18:45.062Z,89.41
2023-05-05T15:22:57.056Z,89.26
2023-05-05T15:27:08.605Z,88.19
2023-05-05T15:31:20.244Z,87.94
2023-05-05T15:35:31.765Z,85.18
2023-05-05T15:39:43.256Z,86.84
2023-05-05T15:43:54.994Z,86.44
2023-05-05T15:48:07.393Z,85.99
2023-05-05T15:52:18.970Z,84.06
2023-05-05T15:56:30.472Z,86.16
2023-05-05T16:00:42.010Z,86.80
2023-05-05T16:04:53.590Z,84.87
2023-05-05T16:09:05.094Z,85.25
2023-05-05T16:13:16.787Z,82.10
2023-05-05T16:17:28.423Z,81.82
2023-05-05T16:21:39.965Z,80.49
2023-05-05T16:25:51.484Z,78.62
2023-05-05T16:30:03.143Z,78.77
2023-05-05T16:34:14.882Z,76.50
2023-05-05T16:38:26.473Z,76.36
2023-05-05T16:42:38.060Z,76.53
2023-05-05T16:46:49.564Z,75.87
2023-05-05T16:51:01.159Z,75.96
2023-05-05T16:55:12.727Z,75.47
2023-05-05T16:59:24.305Z,74.89
2023-05-05T17:03:35.932Z,73.74
2023-05-05T17:07:50.348Z,74.31
2023-05-05T17:12:04.024Z,75.78
2023-05-05T17:16:15.683Z,75.14
2023-05-05T17:20:27.327Z,74.61
2023-05-05T17:24:38.844Z,75.28
2023-05-05T17:28:50.365Z,75.94
2023-05-05T17:33:01.942Z,77.77
2023-05-05T17:37:13.670Z,78.04
2023-05-05T17:41:25.647Z,79.14
2023-05-05T17:45:37.371Z,79.94
2023-05-05T17:49:49.271Z,81.81
2023-05-05T17:54:01.028Z,82.76
2023-05-05T17:58:12.884Z,83.68
2023-05-05T18:02:24.897Z,84.53
2023-05-05T18:06:36.461Z,85.58
2023-05-05T18:10:48.193Z,85.09
2023-05-05T18:15:00.456Z,86.32
2023-05-05T18:19:12.000Z,86.80
2023-05-05T18:23:23.557Z,88.54
2023-05-05T18:27:35.972Z,88.84
2023-05-05T18:31:52.033Z,88.66
2023-05-05T18:36:03.923Z,88.80
2023-05-05T18:40:15.568Z,88.86
2023-05-05T18:44:27.352Z,89.84
2023-05-05T18:48:38.884Z,90.40
2023-05-05T18:52:50.382Z,90.85
2023-05-05T18:57:03.375Z,91.80
2023-05-05T19:01:15.028Z,92.31
2023-05-05T19:05:27.215Z,92.94
2023-05-05T19:09:38.737Z,92.44
2023-05-05T19:13:50.230Z,93.73
2023-05-05T19:18:01.938Z,93.98
2023-05-05T19:22:13.435Z,94.23
2023-05-05T19:26:24.993Z,95.04
2023-05-05T19:30:36.859Z,95.92
2023-05-05T19:34:48.471Z,96.17
2023-05-05T19:39:01.802Z,96.93
2023-05-05T19:43:13.354Z,97.63
2023-05-05T19:47:24.904Z,98.56
2023-05-05T19:51:36.408Z,98.46
2023-05-05T19:55:48.070Z,98.81
2023-05-05T19:59:59.574Z,99.38
2023-05-05T20:04:11.092Z,100.00
2023-05-05T20:08:22.614Z,100.00
2023-05-05T20:12:34.115Z,100.00
2023-05-05T20:16:45.651Z,100.00
2023-05-05T20:20:58.840Z,100.00
2023-05-05T20:25:11.332Z,100.00
2023-05-05T20:29:22.833Z,100.00
2023-05-05T20:33:34.547Z,100.00
2023-05-05T20:37:46.250Z,100.00
2023-05-05T20:41:57.750Z,100.00
2023-05-05T20:46:13.115Z,100.00
2023-05-05T20:50:24.979Z,100.00
2023-05-05T20:54:36.795Z,100.00
2023-05-05T20:58:48.320Z,100.00
2023-05-05T21:02:59.959Z,100.00
2023-05-05T21:07:11.523Z,100.00
2023-05-05T21:11:23.034Z,100.00
2023-05-05T21:15:39.192Z,100.00
2023-05-05T21:19:51.628Z,100.00
2023-05-05T21:24:04.360Z,100.00
2023-05-05T21:28:17.121Z,100.00
